Nearby METAR Reports

 

KJNX - Smithfield Johns, North Carolina, USA
Distance from station: E 11mi, 17km
Updated: Sun, 23-Apr-2017 1:35pm EDT
Overcast
Overcast
 Wind from NE
Wind: NE 12 mph , 19 km/h, Gust: 17 mph , 28 km/h
Temperature: 57°F , 14°C
Dew Point: 54°F , 12°C
Humidity: 88%
Barometer: 30.01 inHg , 1016.3 hPa
Clouds: Overcast
Visibility: 10 miles , 16 km
Cloud details: Overcast 1300 ft
2017/04/23 17:35 KJNX 231735Z AUTO 05010G15KT 10SM OVC013 14/12 A3001 RMK AO2
KHRJ - Erwin/Harnett Co, North Carolina, USA
Distance from station: SW 14mi, 22km
Updated: Sun, 23-Apr-2017 1:35pm EDT
Overcast
Overcast
 Wind from NE
Wind: NE 13 mph , 20 km/h
Temperature: 57°F , 14°C
Dew Point: 57°F , 14°C
Humidity: 100%
Barometer: 30.00 inHg , 1015.9 hPa
Clouds: Overcast
Visibility: 7 miles , 11 km
Cloud details: Overcast 800 ft
2017/04/23 17:35 KHRJ 231735Z AUTO 05011KT 7SM OVC008 14/14 A3000 RMK AO2 T01400140
 
KRDU - Raleigh/Durham, North Carolina, USA
Distance from station: NNW 26mi, 42km
Updated: Sun, 23-Apr-2017 1:05pm EDT
Light rain, Overcast
Light rain, Overcast
 Wind from ENE
Wind: ENE 12 mph , 19 km/h
Temperature: 54°F , 12°C
Dew Point: 52°F , 11°C
Humidity: 94%
Barometer: 30.02 inHg , 1016.6 hPa
Summary: Light rain
Clouds: Overcast
Visibility: 10 miles , 16 km
Cloud details: Overcast 800 ft
2017/04/23 17:05 KRDU 231705Z 06010KT 10SM -RA OVC008 12/11 A3002 RMK AO2 P0001 T01220111
KTTA - Sanford, North Carolina, USA
Distance from station: W 30mi, 48km
Updated: Sun, 23-Apr-2017 1:35pm EDT
Light drizzle, Overcast
Light drizzle, Overcast
 Wind from NE
Wind: NE 6 mph , 9 km/h
Temperature: 54°F , 12°C
Dew Point: 52°F , 11°C
Humidity: 94%
Barometer: 30.01 inHg , 1016.3 hPa
Summary: Light Drizzle
Clouds: Overcast
Visibility: 10 miles , 16 km
Cloud details: Overcast 900 ft
2017/04/23 17:35 KTTA 231735Z AUTO 04005KT 10SM -DZ OVC009 12/11 A3001 RMK AO2 T01210110
 
KGWW - Goldsboro/Wayne, North Carolina, USA
Distance from station: E 34mi, 55km
Updated: Sun, 23-Apr-2017 1:40pm EDT
Light drizzle, Overcast
Light drizzle, Overcast
 Wind from NE
Wind: NE 8 mph , 13 km/h
Temperature: 57°F , 14°C
Dew Point: 54°F , 12°C
Humidity: 88%
Barometer: 30.01 inHg , 1016.3 hPa
Summary: Light Drizzle
Clouds: Overcast
Visibility: 10 miles , 16 km
Cloud details: Overcast 1300 ft
2017/04/23 17:40 KGWW 231740Z AUTO 05007KT 10SM -DZ OVC013 14/12 A3001 RMK AO2 T01410124
KFBG - Fort Bragg/Simmo, North Carolina, USA
Distance from station: SSW 35mi, 56km
Updated: Sun, 23-Apr-2017 1:27pm EDT
Light rain, Overcast
Light rain, Overcast
 Wind from NE
Wind: NE 6 mph , 9 km/h
Temperature: 57°F , 14°C
Dew Point: 55°F , 13°C
Humidity: 94%
Barometer: 29.98 inHg , 1015.2 hPa
Summary: Light rain
Clouds: Overcast
Visibility: 9 miles , 14 km
Cloud details: Overcast 1100 ft
2017/04/23 17:27 KFBG 231727Z AUTO 05005KT 9SM -RA OVC011 14/13 A2998 RMK AO2 RAB09E20DZB20E22RAB27 SLP155 $
 
KPOB - Pope Afb, North Carolina, USA
Distance from station: SW 36mi, 57km
Updated: Sun, 23-Apr-2017 1:37pm EDT
Light drizzle, Overcast
Light drizzle, Overcast
 Wind from E
Wind: E 8 mph , 13 km/h
Temperature: 57°F , 14°C
Dew Point: 55°F , 13°C
Humidity: 94%
Barometer: 29.97 inHg , 1014.9 hPa
Summary: Light Drizzle
Clouds: Overcast
Visibility: 7 miles , 11 km
Cloud details: Overcast 1000 ft
2017/04/23 17:37 KPOB 231737Z AUTO 09007KT 7SM -DZ OVC010 14/13 A2997 RMK AO2 DZB15E25RAB25E36DZB36 SLP151
KLHZ - Louisburg/Frankl, North Carolina, USA
Distance from station: NNE 36mi, 58km
Updated: Sun, 23-Apr-2017 1:35pm EDT
Light drizzle, Overcast
Light drizzle, Overcast
 Wind from NE
Wind: NE 10 mph , 17 km/h, Gust: 17 mph , 28 km/h
Temperature: 52°F , 11°C
Dew Point: 52°F , 11°C
Humidity: 100%
Barometer: 30.05 inHg , 1017.6 hPa
Summary: Light Drizzle
Clouds: Overcast
Visibility: 7 miles , 11 km
Cloud details: Mostly cloudy 700 ft
Overcast 1400 ft
2017/04/23 17:35 KLHZ 231735Z AUTO 05009G15KT 7SM -DZ BKN007 OVC014 11/11 A3005 RMK AO2
 
KGSB - Goldsboro/S. J., North Carolina, USA
Distance from station: ESE 37mi, 60km
Updated: Sun, 23-Apr-2017 1:20pm EDT
Overcast
Overcast
 Wind from ENE
Wind: ENE 8 mph , 13 km/h
Temperature: 59°F , 15°C
Dew Point: 59°F , 15°C
Humidity: 100%
Barometer: 29.99 inHg , 1015.6 hPa
Clouds: Overcast
Visibility: 10 miles , 16 km
Cloud details: Overcast 1000 ft
2017/04/23 17:20 KGSB 231720Z AUTO 06007KT 10SM OVC010 15/15 A2999 RMK AO2 RAE20 SLP158 $
KIGX - Chapel Hill, North Carolina, USA
Distance from station: NW 39mi, 63km
Updated: Sun, 23-Apr-2017 1:30pm EDT
Rain, Mist, Overcast
Rain, Mist, Overcast
 Wind from NNE
Wind: NNE 7 mph , 11 km/h
Temperature: 54°F , 12°C
Dew Point: 54°F , 12°C
Humidity: 100%
Barometer: 30.03 inHg , 1016.9 hPa
Summary: Rain, Mist
Clouds: Overcast
Visibility: 4 miles , 6 km
Cloud details: Mostly cloudy 700 ft
Mostly cloudy 1200 ft
Overcast 1700 ft
2017/04/23 17:30 KIGX 231730Z AUTO 03006KT 4SM RA BR BKN007 BKN012 OVC017 12/12 A3003 RMK AO2 P0013 T01170117
 
KCTZ - Clinton, North Carolina, USA
Distance from station: SSE 40mi, 64km
Updated: Sun, 23-Apr-2017 1:35pm EDT
Drizzle, Overcast
Drizzle, Overcast
 Wind from NE
Wind: NE 9 mph , 15 km/h
Temperature: 59°F , 15°C
Dew Point: 57°F , 14°C
Humidity: 94%
Barometer: 29.98 inHg , 1015.2 hPa
Summary: Drizzle
Clouds: Overcast
Visibility: 7 miles , 11 km
Cloud details: Overcast 1000 ft
2017/04/23 17:35 KCTZ 231735Z AUTO 05008KT 7SM DZ OVC010 15/14 A2998 RMK AO2 T01450137
KFAY - Fayetteville, North Carolina, USA
Distance from station: SSW 42mi, 67km
Updated: Sun, 23-Apr-2017 12:53pm EDT
Overcast
Overcast
 Wind from ENE
Wind: ENE 9 mph , 15 km/h
Temperature: 61°F , 16°C
Dew Point: 55°F , 13°C
Humidity: 83%
Barometer: 29.98 inHg , 1015.2 hPa
Clouds: Overcast
Visibility: 7 miles , 11 km
Cloud details: Overcast 1300 ft
2017/04/23 16:53 KFAY 231653Z AUTO 06008KT 7SM OVC013 16/13 A2998 RMK AO2 SLP146 T01560133
 
KRWI - Rocky Mount, North Carolina, USA
Distance from station: ENE 44mi, 70km
Updated: Sun, 23-Apr-2017 12:53pm EDT
Overcast
Overcast
 Wind from NNE
Wind: NNE 14 mph , 22 km/h
Temperature: 57°F , 14°C
Dew Point: 54°F , 12°C
Humidity: 88%
Barometer: 30.04 inHg , 1017.3 hPa
Clouds: Overcast
Visibility: 10 miles , 16 km
Cloud details: Overcast 1800 ft
2017/04/23 16:53 KRWI 231653Z AUTO 03012KT 10SM OVC018 14/12 A3004 RMK AO2 SLP171 T01390117 $
KDPL - Kenansville/Dupl, North Carolina, USA
Distance from station: SE 50mi, 81km
Updated: Sun, 23-Apr-2017 1:35pm EDT
Overcast
Overcast
 Wind from E
Wind: E 7 mph , 11 km/h
Temperature: 59°F , 15°C
Dew Point: 55°F , 13°C
Humidity: 88%
Barometer: 29.99 inHg , 1015.6 hPa
Clouds: Overcast
Visibility: 10 miles , 16 km
Cloud details: Overcast 1100 ft
2017/04/23 17:35 KDPL 231735Z AUTO 08006KT 10SM OVC011 15/13 A2999 RMK AO2